createdAt,value
2023-04-21T00:00:10.517Z,7.80
2023-04-21T00:02:40.100Z,7.27
2023-04-21T00:05:14.095Z,7.60
2023-04-21T00:07:41.981Z,8.52
2023-04-21T00:10:12.386Z,6.47
2023-04-21T00:12:39.605Z,7.18
2023-04-21T00:15:07.586Z,7.22
2023-04-21T00:17:34.770Z,6.82
2023-04-21T00:20:02.087Z,7.57
2023-04-21T00:22:29.222Z,7.20
2023-04-21T00:24:56.445Z,6.43
2023-04-21T00:27:23.509Z,6.95
2023-04-21T00:29:50.722Z,6.85
2023-04-21T00:32:17.981Z,7.78
2023-04-21T00:34:45.559Z,8.20
2023-04-21T00:37:12.636Z,6.93
2023-04-21T00:39:40.083Z,7.40
2023-04-21T00:42:07.230Z,8.95
2023-04-21T00:44:35.864Z,7.68
2023-04-21T00:47:04.297Z,7.47
2023-04-21T00:49:31.610Z,7.10
2023-04-21T00:51:59.070Z,6.97
2023-04-21T00:54:27.806Z,7.75
2023-04-21T00:56:58.609Z,7.70
2023-04-21T00:59:28.450Z,8.32
2023-04-21T01:01:57.265Z,8.10
2023-04-21T01:04:24.616Z,8.70
2023-04-21T01:06:52.486Z,8.73
2023-04-21T01:09:20.133Z,7.85
2023-04-21T01:12:08.279Z,8.15
2023-04-21T01:14:37.107Z,8.52
2023-04-21T01:17:08.103Z,7.50
2023-04-21T01:19:43.129Z,7.82
2023-04-21T01:22:11.965Z,7.53
2023-04-21T01:24:47.624Z,7.95
2023-04-21T01:27:20.500Z,7.30
2023-04-21T01:29:52.222Z,7.95
2023-04-21T01:32:22.460Z,6.70
2023-04-21T01:34:50.563Z,7.55
2023-04-21T01:37:21.212Z,7.95
2023-04-21T01:39:54.653Z,6.38
2023-04-21T01:44:50.411Z,7.40
2023-04-21T01:47:18.711Z,6.65
2023-04-21T01:49:46.217Z,7.45
2023-04-21T01:52:13.424Z,7.22
2023-04-21T01:54:40.564Z,8.02
2023-04-21T01:57:07.990Z,6.53
2023-04-21T01:59:35.562Z,6.80
2023-04-21T02:02:03.553Z,6.22
2023-04-21T02:04:33.928Z,6.15
2023-04-21T02:07:01.413Z,6.55
2023-04-21T02:09:28.578Z,6.40
2023-04-21T02:11:57.380Z,6.72
2023-04-21T02:14:25.831Z,6.78
2023-04-21T02:16:53.400Z,6.00
2023-04-21T02:19:20.986Z,6.05
2023-04-21T02:21:48.615Z,6.13
2023-04-21T02:24:16.051Z,5.63
2023-04-21T02:26:43.504Z,5.50
2023-04-21T02:29:10.850Z,5.18
2023-04-21T02:31:53.751Z,5.53
2023-04-21T02:34:24.855Z,6.35
2023-04-21T02:36:52.097Z,5.75
2023-04-21T02:39:20.093Z,6.00
2023-04-21T02:41:47.461Z,6.13
2023-04-21T02:44:14.524Z,5.95
2023-04-21T02:46:42.110Z,5.85
2023-04-21T02:49:09.925Z,6.72
2023-04-21T02:51:37.444Z,6.45
2023-04-21T02:54:05.725Z,6.70
2023-04-21T02:56:34.765Z,7.47
2023-04-21T02:59:02.010Z,6.55
2023-04-21T03:01:29.168Z,6.60
2023-04-21T03:03:56.619Z,6.95
2023-04-21T03:06:23.923Z,6.82
2023-04-21T03:08:51.003Z,7.28
2023-04-21T03:11:18.244Z,7.22
2023-04-21T03:13:45.911Z,7.93
2023-04-21T03:16:13.715Z,6.80
2023-04-21T03:18:43.717Z,6.75
2023-04-21T03:21:12.300Z,6.68
2023-04-21T03:23:39.437Z,7.85
2023-04-21T03:26:07.892Z,7.32
2023-04-21T03:28:35.369Z,7.10
2023-04-21T03:31:03.675Z,7.60
2023-04-21T03:33:30.881Z,7.38
2023-04-21T03:35:57.925Z,7.95
2023-04-21T03:38:25.245Z,7.35
2023-04-21T03:40:52.235Z,6.90
2023-04-21T03:43:19.488Z,7.80
2023-04-21T03:45:46.760Z,7.25
2023-04-21T03:48:13.950Z,6.32
2023-04-21T03:50:40.953Z,7.43
2023-04-21T03:53:08.106Z,8.60
2023-04-21T03:55:35.574Z,7.55
2023-04-21T03:58:03.004Z,7.43
2023-04-21T04:00:30.264Z,7.47
2023-04-21T04:02:57.426Z,6.90
2023-04-21T04:05:24.830Z,7.72
2023-04-21T04:07:51.997Z,8.27
2023-04-21T04:10:19.231Z,8.43
2023-04-21T04:12:46.326Z,7.10
2023-04-21T04:15:13.603Z,7.55
2023-04-21T04:17:40.740Z,8.68
2023-04-21T04:20:08.740Z,7.28
2023-04-21T04:22:35.907Z,9.85
2023-04-21T04:25:04.065Z,8.20
2023-04-21T04:27:31.414Z,7.65
2023-04-21T04:29:59.416Z,8.40
2023-04-21T04:32:29.472Z,8.07
2023-04-21T04:34:56.820Z,7.18
2023-04-21T04:37:25.520Z,7.32
2023-04-21T04:39:55.616Z,8.07
2023-04-21T04:42:22.696Z,8.02
2023-04-21T04:44:53.066Z,7.80
2023-04-21T04:47:20.317Z,8.45
2023-04-21T04:49:47.384Z,7.60
2023-04-21T04:52:14.583Z,7.47
2023-04-21T04:54:41.611Z,7.28
2023-04-21T04:57:08.768Z,6.85
2023-04-21T04:59:36.857Z,6.30
2023-04-21T05:02:04.462Z,6.50
2023-04-21T05:04:32.188Z,6.07
2023-04-21T05:06:59.236Z,6.70
2023-04-21T05:09:26.285Z,5.80
2023-04-21T05:11:53.283Z,5.78
2023-04-21T05:14:20.677Z,6.55
2023-04-21T05:16:49.399Z,4.82
2023-04-21T05:19:18.675Z,5.13
2023-04-21T05:21:46.221Z,5.63
2023-04-21T05:24:13.509Z,4.93
2023-04-21T05:26:40.619Z,5.35
2023-04-21T05:29:07.913Z,4.43
2023-04-21T05:31:35.165Z,4.30
2023-04-21T05:34:02.281Z,4.03
2023-04-21T05:36:30.608Z,4.00
2023-04-21T05:38:57.825Z,3.85
2023-04-21T05:41:24.878Z,4.07
2023-04-21T05:43:52.126Z,4.53
2023-04-21T05:46:19.427Z,4.65
2023-04-21T05:48:46.644Z,3.60
2023-04-21T05:51:15.874Z,3.95
2023-04-21T05:53:44.852Z,3.38
2023-04-21T05:56:13.014Z,3.97
2023-04-21T05:58:40.101Z,3.40
2023-04-21T06:01:07.291Z,3.30
2023-04-21T06:03:34.980Z,3.10
2023-04-21T06:06:04.381Z,3.20
2023-04-21T06:08:31.560Z,3.00
2023-04-21T06:10:58.719Z,3.15
2023-04-21T06:13:27.584Z,3.20
2023-04-21T06:15:55.744Z,3.13
2023-04-21T06:18:24.122Z,3.47
2023-04-21T06:20:52.105Z,2.90
2023-04-21T06:23:19.266Z,2.85
2023-04-21T06:25:46.593Z,3.38
2023-04-21T06:28:13.973Z,2.55
2023-04-21T06:30:41.105Z,2.75
2023-04-21T06:33:08.226Z,2.65
2023-04-21T06:35:35.411Z,2.58
2023-04-21T06:38:02.906Z,3.08
2023-04-21T06:40:30.045Z,3.30
2023-04-21T06:42:57.174Z,3.20
2023-04-21T06:45:24.386Z,3.00
2023-04-21T06:47:51.639Z,2.90
2023-04-21T06:50:18.866Z,2.90
2023-04-21T06:52:46.044Z,2.25
2023-04-21T06:55:13.158Z,2.25
2023-04-21T06:57:41.401Z,2.95
2023-04-21T07:00:10.463Z,2.40
2023-04-21T07:02:37.928Z,2.08
2023-04-21T07:05:05.622Z,2.38
2023-04-21T07:07:32.739Z,2.75
2023-04-21T07:10:00.024Z,2.35
2023-04-21T07:12:27.064Z,2.28
2023-04-21T07:14:54.229Z,2.50
2023-04-21T07:17:21.303Z,2.20
2023-04-21T07:19:48.556Z,1.83
2023-04-21T07:22:15.627Z,1.92
2023-04-21T07:24:42.908Z,1.90
2023-04-21T07:27:11.962Z,2.00
2023-04-21T07:29:39.044Z,1.90
2023-04-21T07:32:06.159Z,2.13
2023-04-21T07:34:33.412Z,2.30
2023-04-21T07:37:00.448Z,1.77
2023-04-21T07:39:27.752Z,2.13
2023-04-21T07:41:55.976Z,1.83
2023-04-21T07:44:23.123Z,2.20
2023-04-21T07:46:50.336Z,2.28
2023-04-21T07:49:17.733Z,2.90
2023-04-21T07:51:44.940Z,2.17
2023-04-21T07:54:12.044Z,2.63
2023-04-21T07:56:40.280Z,2.50
2023-04-21T07:59:07.571Z,2.80
2023-04-21T08:01:34.983Z,2.08
2023-04-21T08:04:02.166Z,2.20
2023-04-21T08:06:29.749Z,1.80
2023-04-21T08:08:56.985Z,2.20
2023-04-21T08:11:24.444Z,2.50
2023-04-21T08:13:51.812Z,2.38
2023-04-21T08:16:18.967Z,2.65
2023-04-21T08:18:46.090Z,2.50
2023-04-21T08:21:14.228Z,2.20
2023-04-21T08:23:41.557Z,2.70
2023-04-21T08:26:09.708Z,1.73
2023-04-21T08:28:37.238Z,2.63
2023-04-21T08:31:05.016Z,2.03
2023-04-21T08:33:32.127Z,2.45
2023-04-21T08:36:05.384Z,2.67
2023-04-21T08:38:35.794Z,2.20
2023-04-21T08:41:04.120Z,2.38
2023-04-21T08:43:31.372Z,2.78
2023-04-21T08:46:00.200Z,2.97
2023-04-21T08:48:29.969Z,2.50
2023-04-21T08:50:57.236Z,2.40
2023-04-21T08:53:26.073Z,2.85
2023-04-21T08:56:09.469Z,3.30
2023-04-21T08:58:38.547Z,3.22
2023-04-21T09:01:06.388Z,2.90
2023-04-21T09:03:34.402Z,3.10
2023-04-21T09:06:09.651Z,2.50
2023-04-21T09:08:43.921Z,3.00
2023-04-21T09:11:15.406Z,2.95
2023-04-21T09:13:44.027Z,3.17
2023-04-21T09:16:22.459Z,3.67
2023-04-21T09:18:50.563Z,3.10
2023-04-21T09:21:19.373Z,3.05
2023-04-21T09:23:53.233Z,2.65
2023-04-21T09:26:25.050Z,4.05
2023-04-21T09:28:53.303Z,2.90
2023-04-21T09:31:24.862Z,2.50
2023-04-21T09:34:00.345Z,3.10
2023-04-21T09:36:30.670Z,2.95
2023-04-21T09:41:32.169Z,3.63
2023-04-21T09:44:04.198Z,2.60
2023-04-21T09:46:37.674Z,2.42
2023-04-21T09:49:06.565Z,3.05
2023-04-21T09:54:28.320Z,3.22
2023-04-21T09:56:59.731Z,2.65
2023-04-21T09:59:31.169Z,3.35
2023-04-21T10:02:00.422Z,3.00
2023-04-21T10:04:29.759Z,2.70
2023-04-21T10:06:58.757Z,2.15
2023-04-21T10:09:31.790Z,2.40
2023-04-21T10:12:02.870Z,2.63
2023-04-21T10:14:30.086Z,2.60
2023-04-21T10:17:08.595Z,2.78
2023-04-21T10:19:40.159Z,3.15
2023-04-21T10:22:11.324Z,2.53
2023-04-21T10:24:43.248Z,3.08
2023-04-21T10:27:31.979Z,2.70
2023-04-21T10:30:00.340Z,2.88
2023-04-21T10:32:47.793Z,3.35
2023-04-21T10:35:18.037Z,3.15
2023-04-21T10:37:48.794Z,3.30
2023-04-21T10:40:44.383Z,2.95
2023-04-21T10:43:45.910Z,3.15
2023-04-21T10:46:37.832Z,3.53
2023-04-21T10:49:08.843Z,3.42
2023-04-21T10:52:05.264Z,2.97
2023-04-21T10:54:46.047Z,2.90
2023-04-21T10:57:15.921Z,2.65
2023-04-21T10:59:44.454Z,3.08
2023-04-21T11:02:13.149Z,2.95
2023-04-21T11:04:45.477Z,2.80
2023-04-21T11:07:17.810Z,3.03
2023-04-21T11:09:47.455Z,2.95
2023-04-21T11:12:18.717Z,2.95
2023-04-21T11:14:50.190Z,3.83
2023-04-21T11:17:19.361Z,2.95
2023-04-21T11:19:48.183Z,3.13
2023-04-21T11:22:17.960Z,3.28
2023-04-21T11:24:46.460Z,3.20
2023-04-21T11:27:15.497Z,2.65
2023-04-21T11:29:42.924Z,2.67
2023-04-21T11:32:10.261Z,3.30
2023-04-21T11:34:38.486Z,3.42
2023-04-21T11:37:08.648Z,2.80
2023-04-21T11:39:36.009Z,3.17
2023-04-21T11:42:03.179Z,3.47
2023-04-21T11:44:43.588Z,3.20
2023-04-21T11:47:17.684Z,2.92
2023-04-21T11:49:50.820Z,2.80
2023-04-21T11:52:22.318Z,3.30
2023-04-21T11:54:56.336Z,2.80
2023-04-21T11:57:25.487Z,2.55
2023-04-21T11:59:53.259Z,3.05
2023-04-21T12:02:29.484Z,2.75
2023-04-21T12:05:04.386Z,2.70
2023-04-21T12:07:33.276Z,3.13
2023-04-21T12:10:01.766Z,3.40
2023-04-21T12:12:29.898Z,3.03
2023-04-21T12:14:56.983Z,3.38
2023-04-21T12:17:24.266Z,3.75
2023-04-21T12:19:51.667Z,3.50
2023-04-21T12:22:19.018Z,3.72
2023-04-21T12:24:46.703Z,3.85
2023-04-21T12:27:14.431Z,3.40
2023-04-21T12:29:41.968Z,3.55
2023-04-21T12:32:10.191Z,4.35
2023-04-21T12:34:37.746Z,3.60
2023-04-21T12:37:05.320Z,3.03
2023-04-21T12:39:32.735Z,3.05
2023-04-21T12:42:00.663Z,3.67
2023-04-21T12:44:27.874Z,3.08
2023-04-21T12:46:54.973Z,4.65
2023-04-21T12:49:22.038Z,4.13
2023-04-21T12:51:50.179Z,4.28
2023-04-21T12:54:17.849Z,3.95
2023-04-21T12:56:45.419Z,3.50
2023-04-21T12:59:12.931Z,4.30
2023-04-21T13:01:42.846Z,3.90
2023-04-21T13:04:10.638Z,3.88
2023-04-21T13:06:39.469Z,4.55
2023-04-21T13:09:06.561Z,3.35
2023-04-21T13:11:34.108Z,4.18
2023-04-21T13:14:01.245Z,3.45
2023-04-21T13:16:30.208Z,5.40
2023-04-21T13:18:57.712Z,4.82
2023-04-21T13:21:24.877Z,3.53
2023-04-21T13:23:52.502Z,3.35
2023-04-21T13:26:19.702Z,3.03
2023-04-21T13:28:46.860Z,3.85
2023-04-21T13:31:14.764Z,3.85
2023-04-21T13:33:42.440Z,3.35
2023-04-21T13:36:12.833Z,3.47
2023-04-21T13:38:41.111Z,3.88
2023-04-21T13:41:08.928Z,3.75
2023-04-21T13:43:36.438Z,3.92
2023-04-21T13:46:03.647Z,3.47
2023-04-21T13:48:31.032Z,4.55
2023-04-21T13:50:58.065Z,4.70
2023-04-21T13:53:25.317Z,4.05
2023-04-21T13:55:54.882Z,3.90
2023-04-21T13:58:22.277Z,4.28
2023-04-21T14:00:49.481Z,4.22
2023-04-21T14:03:17.084Z,3.78
2023-04-21T14:05:44.590Z,3.60
2023-04-21T14:08:11.733Z,3.70
2023-04-21T14:10:38.950Z,4.20
2023-04-21T14:13:05.994Z,3.92
2023-04-21T14:15:33.051Z,3.88
2023-04-21T14:18:00.711Z,3.92
2023-04-21T14:20:27.878Z,4.10
2023-04-21T14:22:55.192Z,3.38
2023-04-21T14:25:22.584Z,4.05
2023-04-21T14:27:50.423Z,4.40
2023-04-21T14:30:17.590Z,4.10
2023-04-21T14:32:47.612Z,3.42
2023-04-21T14:35:15.213Z,3.78
2023-04-21T14:37:42.476Z,4.18
2023-04-21T14:40:10.456Z,4.20
2023-04-21T14:42:38.125Z,3.97
2023-04-21T14:45:05.864Z,4.00
2023-04-21T14:47:33.455Z,3.97
2023-04-21T14:50:00.662Z,4.70
2023-04-21T14:52:27.944Z,4.00
2023-04-21T14:54:55.099Z,3.03
2023-04-21T14:57:22.373Z,4.03
2023-04-21T14:59:51.186Z,4.72
2023-04-21T15:02:20.212Z,3.20
2023-04-21T15:04:47.677Z,3.90
2023-04-21T15:07:19.903Z,4.05
2023-04-21T15:09:51.220Z,3.70
2023-04-21T15:12:18.401Z,4.90
2023-04-21T15:14:45.713Z,4.68
2023-04-21T15:17:12.742Z,4.57
2023-04-21T15:19:39.827Z,3.95
2023-04-21T15:22:07.138Z,3.83
2023-04-21T15:24:34.197Z,4.28
2023-04-21T15:27:02.580Z,3.95
2023-04-21T15:29:29.718Z,4.05
2023-04-21T15:31:57.022Z,4.32
2023-04-21T15:34:24.083Z,4.93
2023-04-21T15:36:51.215Z,3.92
2023-04-21T15:39:18.334Z,4.05
2023-04-21T15:41:45.666Z,4.07
2023-04-21T15:44:12.799Z,4.38
2023-04-21T15:46:40.435Z,4.40
2023-04-21T15:49:07.686Z,5.18
2023-04-21T15:51:35.498Z,5.15
2023-04-21T15:54:02.609Z,4.88
2023-04-21T15:56:29.752Z,5.15
2023-04-21T15:58:57.311Z,5.10
2023-04-21T16:01:24.793Z,4.18
2023-04-21T16:03:52.583Z,3.75
2023-04-21T16:06:21.546Z,5.30
2023-04-21T16:08:48.977Z,4.28
2023-04-21T16:11:16.247Z,4.60
2023-04-21T16:13:43.636Z,4.57
2023-04-21T16:16:10.858Z,4.03
2023-04-21T16:18:38.145Z,4.00
2023-04-21T16:21:05.518Z,4.38
2023-04-21T16:23:33.181Z,4.03
2023-04-21T16:26:02.124Z,4.18
2023-04-21T16:28:29.429Z,4.65
2023-04-21T16:30:56.653Z,4.43
2023-04-21T16:33:23.683Z,4.40
2023-04-21T16:35:52.520Z,4.53
2023-04-21T16:38:20.073Z,4.65
2023-04-21T16:40:48.122Z,5.20
2023-04-21T16:43:15.253Z,5.13
2023-04-21T16:45:42.427Z,4.50
2023-04-21T16:48:09.744Z,5.70
2023-04-21T16:50:37.211Z,5.53
2023-04-21T16:53:04.730Z,5.00
2023-04-21T16:55:31.958Z,4.07
2023-04-21T16:57:59.599Z,5.68
2023-04-21T17:00:27.631Z,4.18
2023-04-21T17:02:54.907Z,4.70
2023-04-21T17:05:23.593Z,4.25
2023-04-21T17:07:51.255Z,4.22
2023-04-21T17:10:18.556Z,4.93
2023-04-21T17:12:46.395Z,4.95
2023-04-21T17:15:13.646Z,5.43
2023-04-21T17:17:43.848Z,4.50
2023-04-21T17:20:13.651Z,5.53
2023-04-21T17:22:41.948Z,5.60
2023-04-21T17:25:10.105Z,5.15
2023-04-21T17:27:39.208Z,5.10
2023-04-21T17:30:07.893Z,4.97
2023-04-21T17:32:36.254Z,6.82
2023-04-21T17:35:05.942Z,5.55
2023-04-21T17:37:34.273Z,6.95
2023-04-21T17:40:04.525Z,4.97
2023-04-21T17:42:31.575Z,4.93
2023-04-21T17:44:58.756Z,6.50
2023-04-21T17:47:26.022Z,5.78
2023-04-21T17:49:53.249Z,4.45
2023-04-21T17:52:20.444Z,4.40
2023-04-21T17:54:47.479Z,4.35
2023-04-21T17:57:14.724Z,4.45
2023-04-21T17:59:41.916Z,4.75
2023-04-21T18:02:09.120Z,4.75
2023-04-21T18:04:38.155Z,4.85
2023-04-21T18:07:05.563Z,4.72
2023-04-21T18:09:32.881Z,6.20
2023-04-21T18:12:00.084Z,5.53
2023-04-21T18:14:27.820Z,5.15
2023-04-21T18:16:55.132Z,5.15
2023-04-21T18:19:22.365Z,7.63
2023-04-21T18:21:49.501Z,5.95
2023-04-21T18:24:16.668Z,5.80
2023-04-21T18:26:45.036Z,6.30
2023-04-21T18:29:12.171Z,6.13
2023-04-21T18:31:39.640Z,5.88
2023-04-21T18:34:06.792Z,6.28
2023-04-21T18:36:34.815Z,7.65
2023-04-21T18:39:03.213Z,7.03
2023-04-21T18:41:30.333Z,7.32
2023-04-21T18:43:57.583Z,7.70
2023-04-21T18:46:24.803Z,7.40
2023-04-21T18:48:53.470Z,7.32
2023-04-21T18:51:20.569Z,6.65
2023-04-21T18:53:47.836Z,7.03
2023-04-21T18:56:14.937Z,7.10
2023-04-21T18:58:42.047Z,6.35
2023-04-21T19:01:09.462Z,7.20
2023-04-21T19:03:36.836Z,7.22
2023-04-21T19:06:04.151Z,6.85
2023-04-21T19:08:42.101Z,6.93
2023-04-21T19:11:12.042Z,8.30
2023-04-21T19:13:39.309Z,7.20
2023-04-21T19:16:06.541Z,6.85
2023-04-21T19:18:33.693Z,7.30
2023-04-21T19:21:00.916Z,7.32
2023-04-21T19:23:28.008Z,7.50
2023-04-21T19:25:57.503Z,6.78
2023-04-21T19:28:24.639Z,6.57
2023-04-21T19:30:51.998Z,7.30
2023-04-21T19:33:19.378Z,7.50
2023-04-21T19:35:46.699Z,7.85
2023-04-21T19:38:14.449Z,7.45
2023-04-21T19:40:44.687Z,8.10
2023-04-21T19:43:13.120Z,7.00
2023-04-21T19:45:40.721Z,7.55
2023-04-21T19:48:08.409Z,6.97
2023-04-21T19:50:36.078Z,7.78
2023-04-21T19:53:04.340Z,7.13
2023-04-21T19:55:32.790Z,6.70
2023-04-21T19:58:00.030Z,6.95
2023-04-21T20:00:27.538Z,7.53
2023-04-21T20:02:54.804Z,7.53
2023-04-21T20:05:22.204Z,6.80
2023-04-21T20:07:49.650Z,8.57
2023-04-21T20:10:17.017Z,9.45
2023-04-21T20:12:44.238Z,9.00
2023-04-21T20:15:12.999Z,8.10
2023-04-21T20:17:41.833Z,7.07
2023-04-21T20:20:09.650Z,8.10
2023-04-21T20:22:37.119Z,8.73
2023-04-21T20:25:04.614Z,9.07
2023-04-21T20:27:32.419Z,9.07
2023-04-21T20:30:00.024Z,9.63
2023-04-21T20:32:27.328Z,10.60
2023-04-21T20:34:54.414Z,10.07
2023-04-21T20:37:23.346Z,10.27
2023-04-21T20:39:50.952Z,9.95
2023-04-21T20:42:19.494Z,10.30
2023-04-21T20:44:47.398Z,9.75
2023-04-21T20:47:14.759Z,11.13
2023-04-21T20:49:43.761Z,8.60
2023-04-21T20:52:11.010Z,9.57
2023-04-21T20:54:39.131Z,8.57
2023-04-21T20:57:07.727Z,9.55
2023-04-21T20:59:35.234Z,9.15
2023-04-21T21:02:02.544Z,10.43
2023-04-21T21:04:29.983Z,9.07
2023-04-21T21:06:57.241Z,9.45
2023-04-21T21:09:25.187Z,8.75
2023-04-21T21:11:52.535Z,9.05
2023-04-21T21:14:19.827Z,9.65
2023-04-21T21:16:46.986Z,10.40
2023-04-21T21:19:14.236Z,10.90
2023-04-21T21:21:41.338Z,10.52
2023-04-21T21:24:08.513Z,11.70
2023-04-21T21:26:35.615Z,12.13
2023-04-21T21:29:02.888Z,12.18
2023-04-21T21:31:30.004Z,11.00
2023-04-21T21:33:58.312Z,11.32
2023-04-21T21:36:25.419Z,12.57
2023-04-21T21:38:52.673Z,11.85
2023-04-21T21:41:19.854Z,12.40
2023-04-21T21:43:47.239Z,12.38
2023-04-21T21:46:14.393Z,13.05
2023-04-21T21:48:42.749Z,13.02
2023-04-21T21:51:10.015Z,13.38
2023-04-21T21:53:37.077Z,13.10
2023-04-21T21:56:04.547Z,14.32
2023-04-21T21:58:31.813Z,15.15
2023-04-21T22:00:59.472Z,14.75
2023-04-21T22:03:27.517Z,17.23
2023-04-21T22:05:54.697Z,17.83
2023-04-21T22:08:21.719Z,17.95
2023-04-21T22:10:49.270Z,16.73
2023-04-21T22:13:17.989Z,20.42
2023-04-21T22:15:45.298Z,18.38
2023-04-21T22:18:12.353Z,18.23
2023-04-21T22:20:39.673Z,17.27
2023-04-21T22:23:06.727Z,17.90
2023-04-21T22:25:33.829Z,18.42
2023-04-21T22:28:00.884Z,17.52
2023-04-21T22:30:28.308Z,16.25
2023-04-21T22:32:55.778Z,17.45
2023-04-21T22:35:22.835Z,17.85
2023-04-21T22:37:49.991Z,17.90
2023-04-21T22:40:17.084Z,16.85
2023-04-21T22:42:44.301Z,17.33
2023-04-21T22:45:11.698Z,16.52
2023-04-21T22:47:38.991Z,17.40
2023-04-21T22:50:06.847Z,16.60
2023-04-21T22:52:33.844Z,17.00
2023-04-21T22:55:01.158Z,16.85
2023-04-21T22:57:28.197Z,15.35
2023-04-21T22:59:55.399Z,13.68
2023-04-21T23:02:22.855Z,13.60
2023-04-21T23:04:50.113Z,12.73
2023-04-21T23:07:17.260Z,11.55
2023-04-21T23:09:44.436Z,11.52
2023-04-21T23:12:11.602Z,11.75
2023-04-21T23:14:38.731Z,10.80
2023-04-21T23:17:06.146Z,9.68
2023-04-21T23:19:33.303Z,9.13
2023-04-21T23:22:00.556Z,8.50
2023-04-21T23:24:27.708Z,8.88
2023-04-21T23:26:54.742Z,7.28
2023-04-21T23:29:21.807Z,8.13
2023-04-21T23:31:48.938Z,7.78
2023-04-21T23:34:16.410Z,6.65
2023-04-21T23:36:43.535Z,6.78
2023-04-21T23:39:11.605Z,6.35
2023-04-21T23:41:38.728Z,6.15
2023-04-21T23:44:05.854Z,6.30
2023-04-21T23:46:33.066Z,6.38
2023-04-21T23:49:00.782Z,6.70
2023-04-21T23:51:28.350Z,5.60
2023-04-21T23:53:55.911Z,5.25
2023-04-21T23:56:23.010Z,6.07
2023-04-21T23:58:50.271Z,5.75
